Time;durP1;ratioP1;P1;durP2;ratioP2;P2;SDS_P1;SDS_P2;PMS_P1;PMS_P2;Temp;Humidity;BMP_temperature;BMP_pressure;BME280_temperature;BME280_humidity;BME280_pressure;Samples;Min_cycle;Max_cycle;Signal;HPM_P1;HPM_P2
2022/02/23 00:01:20;;;;;;;0.10;0.10;;;5.90;99.90;;;;;;5117180;28;20392;-91
2022/02/23 00:03:47;;;;;;;0.10;0.10;;;5.20;99.90;;;;;;5132820;28;20044;-91
2022/02/23 00:06:14;;;;;;;0.10;0.10;;;5.20;99.90;;;;;;5099664;28;20051;-91
2022/02/23 00:08:41;;;;;;;0.10;0.10;;;5.20;99.90;;;;;;5133962;28;20039;-90
2022/02/23 00:11:08;;;;;;;0.10;0.10;;;5.20;99.90;;;;;;5115978;28;20130;-90
2022/02/23 00:13:35;;;;;;;0.10;0.10;;;5.20;99.90;;;;;;5112599;28;20077;-90
2022/02/23 00:16:02;;;;;;;0.10;0.10;;;5.20;99.90;;;;;;5112622;28;20042;-89
2022/02/23 00:18:29;;;;;;;0.10;0.10;;;5.20;99.90;;;;;;5118893;28;20850;-91
2022/02/23 00:20:56;;;;;;;0.10;0.10;;;5.20;99.90;;;;;;5101736;28;20063;-90
2022/02/23 00:23:23;;;;;;;0.10;0.10;;;5.10;99.90;;;;;;5079247;28;20035;-89
2022/02/23 00:25:50;;;;;;;0.10;0.10;;;5.90;99.90;;;;;;5105110;28;20056;-89
2022/02/23 00:28:20;;;;;;;0.10;0.10;;;5.70;99.90;;;;;;5115311;28;20534;-92
2022/02/23 00:30:46;;;;;;;0.10;0.10;;;5.10;99.90;;;;;;5132574;28;20079;-89
2022/02/23 00:33:13;;;;;;;0.10;0.10;;;5.10;99.90;;;;;;5099818;28;20104;-89
2022/02/23 00:35:40;;;;;;;0.10;0.10;;;5.10;99.90;;;;;;5132165;28;20407;-89
2022/02/23 00:38:07;;;;;;;0.10;0.10;;;5.30;99.90;;;;;;5132615;28;20081;-89
2022/02/23 00:40:34;;;;;;;0.10;0.10;;;5.00;99.90;;;;;;5115737;28;20123;-90
2022/02/23 00:43:01;;;;;;;0.10;0.10;;;5.20;99.90;;;;;;5099124;28;20032;-91
2022/02/23 00:45:27;;;;;;;0.10;0.10;;;5.00;99.90;;;;;;5132515;28;20027;-89
2022/02/23 00:47:54;;;;;;;0.10;0.10;;;5.00;99.90;;;;;;5099027;28;20039;-89
2022/02/23 00:50:21;;;;;;;0.10;0.10;;;5.00;99.90;;;;;;5098671;28;20130;-91
2022/02/23 00:52:48;;;;;;;0.10;0.10;;;5.00;99.90;;;;;;5132739;28;20099;-89
2022/02/23 00:55:14;;;;;;;0.10;0.10;;;4.90;99.90;;;;;;5098738;28;20051;-89
2022/02/23 00:57:41;;;;;;;0.10;0.10;;;4.90;99.90;;;;;;5098784;28;20031;-89
2022/02/23 01:00:11;;;;;;;0.10;0.10;;;4.90;99.90;;;;;;5116248;28;20039;-91
2022/02/23 01:02:40;;;;;;;0.10;0.10;;;4.90;99.90;;;;;;5115180;28;20096;-91
2022/02/23 01:05:07;;;;;;;0.00;0.00;;;4.80;99.90;;;;;;5098594;28;20072;-90
2022/02/23 01:07:34;;;;;;;0.10;0.10;;;4.80;99.90;;;;;;5131528;28;20039;-92
2022/02/23 01:10:03;;;;;;;0.10;0.10;;;4.80;99.90;;;;;;5132335;28;20154;-90
2022/02/23 01:12:29;;;;;;;0.10;0.10;;;4.80;99.90;;;;;;5115625;28;20043;-91
2022/02/23 01:14:56;;;;;;;0.10;0.10;;;5.10;99.90;;;;;;5098703;28;20421;-91
2022/02/23 01:17:23;;;;;;;0.10;0.10;;;4.80;99.90;;;;;;5114712;28;20058;-91
2022/02/23 01:19:50;;;;;;;0.10;0.10;;;4.70;99.90;;;;;;5115021;28;20040;-91
2022/02/23 01:22:17;;;;;;;0.10;0.10;;;4.80;99.90;;;;;;5114258;28;20035;-91
2022/02/23 01:24:44;;;;;;;0.10;0.10;;;4.70;99.90;;;;;;5115502;28;20044;-89
2022/02/23 01:27:11;;;;;;;0.10;0.10;;;4.00;99.90;;;;;;5149209;28;20122;-91
2022/02/23 01:29:38;;;;;;;0.10;0.10;;;4.60;99.90;;;;;;5098892;28;20067;-91
2022/02/23 01:32:05;;;;;;;0.10;0.10;;;4.70;99.90;;;;;;5114940;28;20092;-90
2022/02/23 01:34:32;;;;;;;0.10;0.10;;;4.70;99.90;;;;;;5098429;28;20476;-90
2022/02/23 01:36:58;;;;;;;0.13;0.13;;;4.60;99.90;;;;;;5097984;28;20038;-89
2022/02/23 01:39:25;;;;;;;0.10;0.10;;;5.50;99.90;;;;;;5131481;28;20193;-91
2022/02/23 01:41:52;;;;;;;0.10;0.10;;;4.60;99.90;;;;;;5097996;28;20046;-91
2022/02/23 01:44:18;;;;;;;0.10;0.10;;;5.80;99.90;;;;;;5114427;28;20496;-89
2022/02/23 01:46:46;;;;;;;0.10;0.10;;;4.60;99.90;;;;;;5114935;28;20059;-89
2022/02/23 01:49:13;;;;;;;0.10;0.10;;;4.60;99.90;;;;;;5097797;28;20047;-89
2022/02/23 01:51:40;;;;;;;0.10;0.10;;;4.70;99.90;;;;;;5097372;28;20046;-90
2022/02/23 01:54:07;;;;;;;0.10;0.10;;;4.70;99.90;;;;;;5098464;28;20097;-90
2022/02/23 01:56:34;;;;;;;0.10;0.10;;;4.60;99.90;;;;;;5131538;28;20043;-91
2022/02/23 01:59:01;;;;;;;0.10;0.10;;;4.60;99.90;;;;;;5075640;28;20047;-89
2022/02/23 02:01:28;;;;;;;0.20;0.20;;;4.70;99.90;;;;;;5107652;28;20509;-91
2022/02/23 02:03:55;;;;;;;0.10;0.10;;;5.00;99.90;;;;;;5095910;28;20496;-90
2022/02/23 02:06:22;;;;;;;0.10;0.10;;;4.60;99.90;;;;;;5097266;28;20050;-91
2022/02/23 02:08:48;;;;;;;0.10;0.10;;;4.70;99.90;;;;;;5098271;28;20458;-91
2022/02/23 02:11:15;;;;;;;0.10;0.10;;;5.70;99.90;;;;;;5114533;28;20039;-91
2022/02/23 02:13:42;;;;;;;0.10;0.10;;;5.40;99.90;;;;;;5116417;28;20042;-91
2022/02/23 02:16:08;;;;;;;0.10;0.10;;;4.70;99.90;;;;;;5119101;28;20040;-90
2022/02/23 02:18:35;;;;;;;0.10;0.10;;;4.60;99.90;;;;;;5101938;28;20032;-89
2022/02/23 02:21:02;;;;;;;0.10;0.10;;;4.60;99.90;;;;;;5118561;28;20039;-91
2022/02/23 02:23:29;;;;;;;0.10;0.10;;;5.60;99.90;;;;;;5101637;28;20081;-89
2022/02/23 02:25:56;;;;;;;0.10;0.10;;;4.60;99.90;;;;;;5152890;28;20473;-90
2022/02/23 02:28:22;;;;;;;0.10;0.10;;;4.50;99.90;;;;;;5118516;28;20614;-92
2022/02/23 02:30:49;;;;;;;0.10;0.10;;;4.50;99.90;;;;;;5101747;28;20381;-92
2022/02/23 02:33:16;;;;;;;0.10;0.10;;;5.00;99.90;;;;;;5118590;28;20086;-91
2022/02/23 02:35:42;;;;;;;0.10;0.10;;;4.40;99.90;;;;;;5118271;28;20454;-91
2022/02/23 02:38:09;;;;;;;0.10;0.10;;;4.40;99.90;;;;;;5118095;28;20031;-89
2022/02/23 02:40:36;;;;;;;0.10;0.10;;;4.50;99.90;;;;;;5134465;28;20414;-89
2022/02/23 02:43:05;;;;;;;0.10;0.10;;;4.40;99.90;;;;;;5102294;28;20849;-91
2022/02/23 02:45:32;;;;;;;0.10;0.10;;;4.30;99.90;;;;;;5102033;28;20042;-91
2022/02/23 02:47:59;;;;;;;0.10;0.10;;;4.30;99.90;;;;;;5118343;28;20050;-91
2022/02/23 02:50:26;;;;;;;0.10;0.10;;;4.80;99.90;;;;;;5135028;28;20069;-89
2022/02/23 02:52:53;;;;;;;0.13;0.13;;;4.20;99.90;;;;;;5101319;28;20051;-89
2022/02/23 02:55:20;;;;;;;0.10;0.10;;;4.50;99.90;;;;;;5117326;28;20039;-91
2022/02/23 02:57:47;;;;;;;0.10;0.10;;;4.30;99.90;;;;;;5101203;28;20036;-89
2022/02/23 03:00:17;;;;;;;0.10;0.10;;;4.30;99.90;;;;;;5134937;28;20104;-91
2022/02/23 03:02:43;;;;;;;0.10;0.10;;;4.30;99.90;;;;;;5134595;28;20048;-90
2022/02/23 03:05:10;;;;;;;0.10;0.10;;;4.30;99.90;;;;;;5100974;28;20044;-91
2022/02/23 03:07:37;;;;;;;0.10;0.10;;;4.20;99.90;;;;;;5117556;28;20035;-91
2022/02/23 03:10:04;;;;;;;0.10;0.10;;;4.20;99.90;;;;;;5117793;28;20075;-91
2022/02/23 03:12:31;;;;;;;0.10;0.10;;;4.20;99.90;;;;;;5101120;28;20480;-91
2022/02/23 03:14:58;;;;;;;0.10;0.10;;;4.20;99.90;;;;;;5100850;28;20043;-89
2022/02/23 03:17:25;;;;;;;0.10;0.10;;;4.40;99.90;;;;;;5117360;28;20407;-91
2022/02/23 03:19:53;;;;;;;0.10;0.10;;;4.40;99.90;;;;;;5100649;28;20039;-91
2022/02/23 03:22:20;;;;;;;0.00;0.00;;;4.90;99.90;;;;;;5117773;28;20036;-89
2022/02/23 03:24:46;;;;;;;0.10;0.10;;;4.40;99.90;;;;;;5100318;28;20036;-90
2022/02/23 03:27:13;;;;;;;0.10;0.10;;;4.30;99.90;;;;;;5100114;28;20039;-91
2022/02/23 03:29:40;;;;;;;0.10;0.10;;;4.80;99.90;;;;;;5116976;28;20043;-90
2022/02/23 03:32:07;;;;;;;0.10;0.10;;;4.20;99.90;;;;;;5134670;28;20076;-91
2022/02/23 03:34:34;;;;;;;0.10;0.10;;;4.20;99.90;;;;;;5117066;28;20040;-91
2022/02/23 03:37:00;;;;;;;0.10;0.10;;;4.10;99.90;;;;;;5100925;28;20528;-90
2022/02/23 03:39:27;;;;;;;0.10;0.10;;;4.90;99.90;;;;;;5100178;28;20083;-91
2022/02/23 03:41:55;;;;;;;0.10;0.10;;;4.20;99.90;;;;;;5100151;28;20086;-91
2022/02/23 03:44:22;;;;;;;0.10;0.10;;;4.20;99.90;;;;;;5100066;28;20052;-89
2022/02/23 03:46:49;;;;;;;0.10;0.10;;;4.20;99.90;;;;;;5100983;28;20531;-88
2022/02/23 03:49:16;;;;;;;0.10;0.10;;;3.60;99.90;;;;;;5117152;28;20400;-90
2022/02/23 03:51:43;;;;;;;0.10;0.10;;;4.90;99.90;;;;;;5116609;28;20039;-89
2022/02/23 03:54:10;;;;;;;0.10;0.10;;;4.30;99.90;;;;;;5133760;28;20043;-89
2022/02/23 03:56:39;;;;;;;0.10;0.10;;;4.20;99.90;;;;;;5133514;28;20043;-89
2022/02/23 03:59:08;;;;;;;0.10;0.10;;;4.20;99.90;;;;;;5116538;28;20042;-91
2022/02/23 04:01:38;;;;;;;0.10;0.10;;;4.20;99.90;;;;;;5116910;28;20062;-91
2022/02/23 04:04:06;;;;;;;0.10;0.10;;;5.00;99.90;;;;;;5133256;28;20051;-91
2022/02/23 04:06:33;;;;;;;0.10;0.10;;;4.10;99.90;;;;;;5133269;28;20061;-92
2022/02/23 04:09:01;;;;;;;0.10;0.10;;;4.20;99.90;;;;;;5133108;28;20039;-89
2022/02/23 04:11:28;;;;;;;0.10;0.10;;;4.20;99.90;;;;;;5116485;28;20040;-91
2022/02/23 04:13:55;;;;;;;0.10;0.10;;;4.20;99.90;;;;;;5099668;28;20032;-89
2022/02/23 04:16:25;;;;;;;0.10;0.10;;;4.20;99.90;;;;;;5116770;28;20158;-91
2022/02/23 04:18:53;;;;;;;0.10;0.10;;;5.40;99.90;;;;;;5099781;28;20079;-89
2022/02/23 04:21:20;;;;;;;0.10;0.10;;;4.60;99.90;;;;;;5133194;28;20035;-89
2022/02/23 04:23:47;;;;;;;0.10;0.10;;;4.10;99.90;;;;;;5116074;28;20456;-89
2022/02/23 04:26:16;;;;;;;0.15;0.15;;;5.00;99.90;;;;;;5099194;28;20131;-91
2022/02/23 04:28:43;;;;;;;0.10;0.10;;;4.10;99.90;;;;;;5132909;28;20096;-91
2022/02/23 04:31:11;;;;;;;0.10;0.10;;;4.10;99.90;;;;;;5115489;28;20035;-91
2022/02/23 04:33:39;;;;;;;0.10;0.10;;;4.10;99.90;;;;;;5132992;28;20047;-89
2022/02/23 04:36:07;;;;;;;0.10;0.10;;;4.00;99.90;;;;;;5115228;28;20048;-91
2022/02/23 04:38:37;;;;;;;0.10;0.10;;;4.00;99.90;;;;;;5132405;28;20051;-89
2022/02/23 04:41:07;;;;;;;0.10;0.10;;;4.80;99.90;;;;;;5116220;28;20039;-91
2022/02/23 04:43:35;;;;;;;0.10;0.10;;;5.20;99.90;;;;;;5115280;28;20051;-89
2022/02/23 04:46:10;;;;;;;0.10;0.10;;;4.00;99.90;;;;;;5132791;28;20036;-90
2022/02/23 04:48:49;;;;;;;0.10;0.10;;;4.00;99.90;;;;;;5132126;28;20042;-91
2022/02/23 04:51:17;;;;;;;0.10;0.10;;;3.90;99.90;;;;;;5132592;28;20563;-89
2022/02/23 04:53:44;;;;;;;0.10;0.10;;;3.90;99.90;;;;;;5115239;28;20403;-92
2022/02/23 04:56:10;;;;;;;0.10;0.10;;;3.90;99.90;;;;;;5099012;28;20251;-91
2022/02/23 04:58:37;;;;;;;0.10;0.10;;;3.90;99.90;;;;;;5115425;28;20493;-91
2022/02/23 05:01:05;;;;;;;0.10;0.10;;;3.90;99.90;;;;;;5115648;28;20725;-89
2022/02/23 05:03:32;;;;;;;0.10;0.10;;;3.90;99.90;;;;;;5131682;28;20079;-91
2022/02/23 05:06:03;;;;;;;0.10;0.10;;;4.40;99.90;;;;;;5132153;28;20126;-91
2022/02/23 05:08:30;;;;;;;0.10;0.10;;;3.90;99.90;;;;;;5132239;28;20042;-89
2022/02/23 05:10:57;;;;;;;0.10;0.10;;;3.70;99.90;;;;;;5132341;28;20089;-91
2022/02/23 05:13:27;;;;;;;0.10;0.10;;;4.20;99.90;;;;;;5098935;28;20050;-91
2022/02/23 05:15:56;;;;;;;0.10;0.10;;;3.90;99.90;;;;;;5131610;28;20047;-89
2022/02/23 05:18:27;;;;;;;0.17;0.17;;;3.80;99.90;;;;;;5115012;28;20070;-91
2022/02/23 05:20:55;;;;;;;0.10;0.10;;;3.80;99.90;;;;;;5131672;28;20046;-91
2022/02/23 05:23:22;;;;;;;0.10;0.10;;;3.80;99.90;;;;;;5098688;28;20400;-89
2022/02/23 05:25:49;;;;;;;0.10;0.10;;;3.90;99.90;;;;;;5098608;28;20039;-91
2022/02/23 05:28:18;;;;;;;0.10;0.10;;;3.80;99.90;;;;;;5132332;28;20484;-91
2022/02/23 05:30:45;;;;;;;0.10;0.10;;;3.80;99.90;;;;;;5131617;28;20039;-91
2022/02/23 05:33:11;;;;;;;0.10;0.10;;;3.80;99.90;;;;;;5115873;28;20480;-91
2022/02/23 05:35:39;;;;;;;0.10;0.10;;;3.90;99.90;;;;;;5115100;28;20035;-89
2022/02/23 05:38:07;;;;;;;0.10;0.10;;;3.80;99.90;;;;;;5115144;28;20476;-91
2022/02/23 05:40:34;;;;;;;0.10;0.10;;;3.80;99.90;;;;;;5132173;28;20134;-89
2022/02/23 05:43:01;;;;;;;0.10;0.10;;;4.60;99.90;;;;;;5115420;28;20084;-89
2022/02/23 05:45:28;;;;;;;0.10;0.10;;;3.90;99.90;;;;;;5098541;28;20039;-91
2022/02/23 05:47:55;;;;;;;0.10;0.10;;;4.30;99.90;;;;;;5114856;28;20109;-89
2022/02/23 05:50:21;;;;;;;0.10;0.10;;;3.80;99.90;;;;;;5102274;28;20488;-91
2022/02/23 05:52:48;;;;;;;0.10;0.10;;;3.70;99.90;;;;;;5118510;28;20040;-89
2022/02/23 05:55:15;;;;;;;0.10;0.10;;;3.60;99.90;;;;;;5118989;28;20078;-89
2022/02/23 05:57:41;;;;;;;0.10;0.10;;;4.20;99.90;;;;;;5102838;28;20046;-89
2022/02/23 06:00:09;;;;;;;0.20;0.20;;;3.60;99.90;;;;;;5102818;28;20039;-90
2022/02/23 06:02:36;;;;;;;0.10;0.10;;;3.60;99.90;;;;;;5102182;28;20058;-89
2022/02/23 06:05:04;;;;;;;0.20;0.20;;;3.60;99.90;;;;;;5101795;28;20039;-91
2022/02/23 06:07:31;;;;;;;0.20;0.20;;;3.60;99.90;;;;;;5135790;28;20050;-92
2022/02/23 06:09:58;;;;;;;0.20;0.20;;;4.00;99.90;;;;;;5101286;28;20043;-90
2022/02/23 06:12:24;;;;;;;0.10;0.10;;;3.80;99.90;;;;;;5102331;28;20155;-89
2022/02/23 06:14:51;;;;;;;0.10;0.10;;;4.80;99.90;;;;;;5101679;28;20035;-91
2022/02/23 06:17:19;;;;;;;0.17;0.17;;;3.50;99.90;;;;;;5118385;28;20148;-90
2022/02/23 06:19:46;;;;;;;0.20;0.20;;;4.70;99.90;;;;;;5101803;28;20046;-90
2022/02/23 06:22:13;;;;;;;0.20;0.20;;;3.50;99.90;;;;;;5118228;28;20035;-91
2022/02/23 06:24:40;;;;;;;0.10;0.10;;;3.50;99.90;;;;;;5117734;28;20035;-91
2022/02/23 06:27:07;;;;;;;0.10;0.10;;;3.50;99.90;;;;;;5118611;28;20047;-90
2022/02/23 06:29:33;;;;;;;0.10;0.10;;;2.70;99.90;;;;;;5135259;28;20484;-91
2022/02/23 06:32:08;;;;;;;0.10;0.10;;;3.50;99.90;;;;;;5118171;28;20412;-89
2022/02/23 06:34:36;;;;;;;0.10;0.10;;;3.40;99.90;;;;;;5117740;28;20043;-89
2022/02/23 06:37:03;;;;;;;0.10;0.10;;;4.40;99.90;;;;;;5134766;28;20122;-88
2022/02/23 06:39:32;;;;;;;0.10;0.10;;;3.40;99.90;;;;;;5117688;28;20035;-91
2022/02/23 06:42:01;;;;;;;0.77;0.77;;;4.50;99.90;;;;;;5117869;28;20066;-91
2022/02/23 06:44:29;;;;;;;0.17;0.17;;;3.20;99.90;;;;;;5134828;28;20039;-89
2022/02/23 06:46:59;;;;;;;0.10;0.10;;;3.30;99.90;;;;;;5117125;28;20035;-90
2022/02/23 06:49:28;;;;;;;0.10;0.10;;;3.30;99.90;;;;;;5118360;28;20087;-91
2022/02/23 06:51:58;;;;;;;0.17;0.17;;;3.30;99.90;;;;;;5134094;28;20488;-89
2022/02/23 06:54:26;;;;;;;0.10;0.10;;;3.30;99.90;;;;;;5134359;28;20491;-89
2022/02/23 06:56:53;;;;;;;0.20;0.20;;;3.30;99.90;;;;;;5116978;28;20122;-89
2022/02/23 06:59:21;;;;;;;0.10;0.10;;;3.30;99.90;;;;;;5134274;28;20028;-91
2022/02/23 07:01:47;;;;;;;0.10;0.10;;;3.40;99.90;;;;;;5133960;28;20693;-90
2022/02/23 07:04:14;;;;;;;0.10;0.10;;;4.00;99.90;;;;;;5101296;28;20062;-89
2022/02/23 07:06:42;;;;;;;0.20;0.20;;;3.40;99.90;;;;;;5105163;28;20507;-89
2022/02/23 07:09:09;;;;;;;0.10;0.10;;;3.80;99.90;;;;;;5134153;28;20067;-90
2022/02/23 07:11:37;;;;;;;0.10;0.10;;;3.40;99.90;;;;;;5134299;28;20028;-89
2022/02/23 07:14:05;;;;;;;0.10;0.10;;;3.40;99.90;;;;;;5134041;28;20091;-91
2022/02/23 07:16:31;;;;;;;0.10;0.10;;;3.70;99.90;;;;;;5134450;28;20070;-90
2022/02/23 07:18:58;;;;;;;0.10;0.10;;;3.40;99.90;;;;;;5116874;28;20563;-91
2022/02/23 07:21:25;;;;;;;0.10;0.10;;;3.40;99.90;;;;;;5117796;28;20092;-90
2022/02/23 07:23:52;;;;;;;0.10;0.10;;;4.50;99.90;;;;;;5116452;28;20140;-91
2022/02/23 07:26:18;;;;;;;0.10;0.10;;;3.40;99.90;;;;;;5134124;28;20039;-89
2022/02/23 07:28:45;;;;;;;0.10;0.10;;;3.40;99.90;;;;;;5133845;28;20036;-90
2022/02/23 07:31:15;;;;;;;0.10;0.10;;;3.40;99.90;;;;;;5134278;28;20042;-89
2022/02/23 07:33:42;;;;;;;0.10;0.10;;;3.40;99.90;;;;;;5117797;28;20043;-90
2022/02/23 07:36:09;;;;;;;0.10;0.10;;;4.60;99.90;;;;;;5117059;28;20044;-91
2022/02/23 07:38:38;;;;;;;0.10;0.10;;;3.50;99.90;;;;;;5100634;28;20468;-90
2022/02/23 07:41:06;;;;;;;0.10;0.10;;;4.20;99.90;;;;;;5117554;28;20078;-90
2022/02/23 07:43:34;;;;;;;0.10;0.10;;;3.60;99.90;;;;;;5133457;28;20118;-90
2022/02/23 07:46:01;;;;;;;0.10;0.10;;;3.60;99.90;;;;;;5133553;28;20074;-91
2022/02/23 07:48:28;;;;;;;0.20;0.20;;;3.60;99.90;;;;;;5101277;28;20083;-91
2022/02/23 07:50:58;;;;;;;0.10;0.10;;;3.60;99.90;;;;;;5133839;28;20100;-91
2022/02/23 07:53:33;;;;;;;0.10;0.10;;;3.70;99.90;;;;;;5130408;28;20074;-94
2022/02/23 07:56:03;;;;;;;0.10;0.10;;;3.70;99.90;;;;;;5114599;28;20568;-93
2022/02/23 07:58:30;;;;;;;0.10;0.10;;;3.70;99.90;;;;;;5116485;28;20485;-95
2022/02/23 08:00:57;;;;;;;0.10;0.10;;;4.10;99.90;;;;;;5118908;28;20064;-94
2022/02/23 08:03:24;;;;;;;0.10;0.10;;;3.80;99.90;;;;;;5133404;28;20627;-92
2022/02/23 08:05:51;;;;;;;0.10;0.10;;;3.90;99.90;;;;;;5133358;28;20039;-92
2022/02/23 08:08:19;;;;;;;0.10;0.10;;;4.30;99.90;;;;;;5134004;28;20048;-90
2022/02/23 08:10:47;;;;;;;0.10;0.10;;;4.00;99.90;;;;;;5132274;28;20036;-93
2022/02/23 08:13:15;;;;;;;0.10;0.10;;;4.00;99.90;;;;;;5112643;28;20043;-92
2022/02/23 08:21:18;;;;;;;0.10;0.10;;;4.20;99.90;;;;;;5142594;28;20549;-94
2022/02/23 08:23:46;;;;;;;0.10;0.10;;;4.30;99.90;;;;;;5114928;28;20505;-93
2022/02/23 08:26:14;;;;;;;0.10;0.10;;;4.60;99.90;;;;;;5116000;28;20028;-94
2022/02/23 08:28:41;;;;;;;0.10;0.10;;;4.40;99.90;;;;;;5133525;28;20044;-93
2022/02/23 08:31:08;;;;;;;0.10;0.10;;;4.40;99.90;;;;;;5148069;28;20123;-95
2022/02/23 08:33:41;;;;;;;0.10;0.10;;;4.20;99.90;;;;;;5137091;28;20069;-94
2022/02/23 08:36:08;;;;;;;0.10;0.10;;;4.60;99.90;;;;;;5133881;28;20108;-93
2022/02/23 08:38:36;;;;;;;0.10;0.10;;;4.80;99.90;;;;;;5133837;28;20036;-94
2022/02/23 08:41:04;;;;;;;0.10;0.10;;;4.70;99.90;;;;;;5133021;28;20035;-94
2022/02/23 08:43:33;;;;;;;0.10;0.10;;;5.70;99.90;;;;;;5150751;27;20039;-91
2022/02/23 08:46:00;;;;;;;0.10;0.10;;;4.90;99.90;;;;;;5169084;27;20123;-92
2022/02/23 08:48:27;;;;;;;0.10;0.10;;;5.00;99.90;;;;;;5170960;27;20023;-94
2022/02/23 08:50:55;;;;;;;0.10;0.10;;;5.90;99.90;;;;;;5168986;27;20062;-94
2022/02/23 08:53:23;;;;;;;0.10;0.10;;;5.10;99.90;;;;;;5168488;27;20047;-93
2022/02/23 08:55:50;;;;;;;0.10;0.10;;;5.70;99.90;;;;;;5168549;27;20514;-93
2022/02/23 08:58:17;;;;;;;0.10;0.10;;;5.50;99.90;;;;;;5169046;27;20031;-93
2022/02/23 09:00:47;;;;;;;0.10;0.10;;;5.30;99.90;;;;;;5152119;28;20039;-93
2022/02/23 09:03:15;;;;;;;0.10;0.10;;;5.40;99.90;;;;;;5151769;28;20064;-92
2022/02/23 09:05:42;;;;;;;0.10;0.10;;;;;;;;;;5165898;27;20063;-93
2022/02/23 09:08:09;;;;;;;0.10;0.10;;;5.60;99.90;;;;;;5133305;28;20040;-93
2022/02/23 09:10:39;;;;;;;0.10;0.10;;;5.70;99.90;;;;;;5150648;28;20039;-92
2022/02/23 09:13:08;;;;;;;0.10;0.10;;;4.90;99.90;;;;;;5135594;28;20047;-94
2022/02/23 09:15:35;;;;;;;0.10;0.10;;;5.80;99.90;;;;;;5134846;28;20467;-94
2022/02/23 09:18:03;;;;;;;0.10;0.10;;;5.80;99.90;;;;;;5135314;28;20039;-94
2022/02/23 09:20:31;;;;;;;0.10;0.10;;;5.90;99.90;;;;;;5119441;28;20040;-93
2022/02/23 09:22:58;;;;;;;0.08;0.08;;;6.00;99.90;;;;;;5133425;28;20041;-95
2022/02/23 09:25:25;;;;;;;0.10;0.10;;;6.10;99.90;;;;;;5132619;28;20039;-94
2022/02/23 09:27:52;;;;;;;0.10;0.10;;;6.10;99.90;;;;;;5132506;28;20043;-93
2022/02/23 09:30:19;;;;;;;0.10;0.10;;;7.00;99.90;;;;;;5132474;28;20526;-93
2022/02/23 09:32:49;;;;;;;0.10;0.10;;;6.30;99.90;;;;;;5132188;28;20093;-93
2022/02/23 09:35:22;;;;;;;0.10;0.10;;;6.30;99.90;;;;;;5131676;28;20040;-93
2022/02/23 09:37:49;;;;;;;0.10;0.10;;;5.80;99.90;;;;;;5115910;28;20039;-92
2022/02/23 09:40:16;;;;;;;0.10;0.10;;;6.40;99.90;;;;;;5114262;28;20046;-92
2022/02/23 09:42:44;;;;;;;0.10;0.10;;;6.50;99.90;;;;;;5131671;28;20027;-92
2022/02/23 09:45:12;;;;;;;2.17;0.32;;;6.60;99.90;;;;;;5131741;28;20064;-93
2022/02/23 09:47:40;;;;;;;0.10;0.10;;;6.70;99.90;;;;;;5132582;28;20040;-91
2022/02/23 09:50:10;;;;;;;0.10;0.10;;;6.70;99.90;;;;;;5115814;28;20039;-94
2022/02/23 09:52:37;;;;;;;0.10;0.10;;;6.70;99.90;;;;;;5132362;28;20097;-93
2022/02/23 09:55:07;;;;;;;0.10;0.10;;;6.80;99.90;;;;;;5115310;28;20048;-94
2022/02/23 09:57:36;;;;;;;0.10;0.10;;;6.80;99.90;;;;;;5116319;28;20058;-94
2022/02/23 10:00:22;;;;;;;0.10;0.10;;;6.80;99.90;;;;;;5132087;28;20039;-94
2022/02/23 10:02:53;;;;;;;0.10;0.10;;;6.90;99.90;;;;;;5116243;28;20087;-93
2022/02/23 10:05:24;;;;;;;0.10;0.10;;;7.00;99.90;;;;;;5131814;28;20039;-91
2022/02/23 10:07:52;;;;;;;0.10;0.10;;;7.10;99.90;;;;;;5133569;28;20148;-94
2022/02/23 10:10:36;;;;;;;0.10;0.10;;;7.50;99.90;;;;;;5131205;28;20108;-93
2022/02/23 10:13:05;;;;;;;0.15;0.15;;;7.20;99.90;;;;;;5132723;28;20040;-94
2022/02/23 10:15:38;;;;;;;0.10;0.10;;;7.30;99.90;;;;;;5114944;28;20488;-94
2022/02/23 10:18:07;;;;;;;0.10;0.10;;;7.40;99.90;;;;;;5130947;28;20042;-93
2022/02/23 10:20:39;;;;;;;0.03;0.03;;;7.40;99.90;;;;;;5132277;28;20046;-91
2022/02/23 10:23:18;;;;;;;0.10;0.10;;;7.40;99.90;;;;;;5131511;28;20385;-92
2022/02/23 10:25:54;;;;;;;0.10;0.10;;;7.50;99.90;;;;;;5132443;28;20091;-92
2022/02/23 10:28:23;;;;;;;;;;;7.70;99.90;;;;;;5131653;28;20039;-96
2022/02/23 10:31:00;;;;;;;0.10;0.10;;;7.60;99.90;;;;;;5148881;28;19920;-90
2022/02/23 10:33:39;;;;;;;0.00;0.00;;;7.70;99.90;;;;;;5132054;28;20043;-94
2022/02/23 10:36:10;;;;;;;0.15;0.15;;;7.20;99.90;;;;;;5111223;28;20039;-91
2022/02/23 10:38:39;;;;;;;0.10;0.10;;;7.80;99.90;;;;;;5134713;28;20104;-93
2022/02/23 10:41:07;;;;;;;0.05;0.05;;;7.80;99.90;;;;;;5134711;28;20126;-91
2022/02/23 10:43:45;;;;;;;0.30;0.30;;;7.90;99.90;;;;;;5134629;28;20032;-90
2022/02/23 10:46:18;;;;;;;0.10;0.10;;;7.40;99.90;;;;;;5119187;28;20039;-95
2022/02/23 10:48:48;;;;;;;0.03;0.03;;;8.00;99.90;;;;;;5135178;28;20040;-92
2022/02/23 10:51:27;;;;;;;0.10;0.10;;;8.10;99.90;;;;;;5134151;28;20411;-92
2022/02/23 10:54:12;;;;;;;0.10;0.10;;;8.20;99.90;;;;;;5134521;28;20084;-88
2022/02/23 10:56:44;;;;;;;0.00;0.00;;;8.20;99.90;;;;;;5134587;28;20096;-86
2022/02/23 10:59:17;;;;;;;0.10;0.10;;;8.20;99.90;;;;;;5131841;28;20629;-87
2022/02/23 11:01:46;;;;;;;0.10;0.10;;;8.30;99.90;;;;;;5133694;28;20048;-86
2022/02/23 11:04:12;;;;;;;0.00;0.00;;;8.30;99.90;;;;;;5133051;28;20053;-91
2022/02/23 11:06:41;;;;;;;0.08;0.08;;;8.30;99.90;;;;;;5134043;28;20399;-86
2022/02/23 11:09:09;;;;;;;0.00;0.00;;;8.40;99.90;;;;;;5132766;28;20039;-90
2022/02/23 11:11:35;;;;;;;0.00;0.00;;;8.40;99.90;;;;;;5116712;28;20040;-91
2022/02/23 11:14:07;;;;;;;0.10;0.10;;;8.50;99.90;;;;;;5133227;28;20035;-87
2022/02/23 11:16:36;;;;;;;0.10;0.10;;;8.50;99.90;;;;;;5132908;28;20035;-86
2022/02/23 11:19:05;;;;;;;0.10;0.10;;;8.60;99.90;;;;;;5115893;28;20039;-91
2022/02/23 11:21:34;;;;;;;0.10;0.10;;;8.60;99.90;;;;;;5132814;28;20042;-85
2022/02/23 11:24:04;;;;;;;0.10;0.10;;;8.60;99.90;;;;;;5149168;28;20097;-91
2022/02/23 11:26:34;;;;;;;0.08;0.08;;;8.70;99.90;;;;;;5116364;28;20031;-86
2022/02/23 11:29:24;;;;;;;0.00;0.00;;;8.70;99.90;;;;;;5133456;28;20131;-87
2022/02/23 11:31:54;;;;;;;0.00;0.00;;;8.80;99.90;;;;;;5149554;28;20488;-92
2022/02/23 11:34:24;;;;;;;0.00;0.00;;;8.70;99.90;;;;;;5132774;28;20045;-87
2022/02/23 11:36:54;;;;;;;0.00;0.00;;;8.80;99.90;;;;;;5115509;28;20039;-92
2022/02/23 11:39:29;;;;;;;0.03;0.03;;;8.80;99.90;;;;;;5116063;28;20063;-91
2022/02/23 11:41:59;;;;;;;0.20;0.20;;;8.90;99.90;;;;;;5131691;28;20050;-87
2022/02/23 11:44:35;;;;;;;0.00;0.00;;;8.90;99.90;;;;;;5131860;28;20063;-92
2022/02/23 11:47:07;;;;;;;0.00;0.00;;;8.80;99.90;;;;;;5130759;28;20046;-93
2022/02/23 11:49:34;;;;;;;0.10;0.10;;;8.80;99.90;;;;;;5149208;28;20118;-92
2022/02/23 11:52:12;;;;;;;0.00;0.00;;;8.70;99.90;;;;;;5132389;28;20035;-93
2022/02/23 11:55:08;;;;;;;0.05;0.05;;;8.80;99.90;;;;;;5133347;28;20036;-93
2022/02/23 11:57:49;;;;;;;0.10;0.10;;;8.70;99.90;;;;;;5132418;28;20101;-87
2022/02/23 12:00:36;;;;;;;0.00;0.00;;;8.80;99.90;;;;;;5148720;28;20530;-87
2022/02/23 12:03:04;;;;;;;0.00;0.00;;;8.90;99.90;;;;;;5114741;28;20044;-87
2022/02/23 12:05:43;;;;;;;0.10;0.10;;;8.90;99.90;;;;;;5111981;28;20469;-92
2022/02/23 12:08:36;;;;;;;0.00;0.00;;;9.00;99.90;;;;;;5111760;28;20392;-92
2022/02/23 12:11:13;;;;;;;0.00;0.00;;;9.00;99.90;;;;;;5113191;28;20036;-92
2022/02/23 12:13:42;;;;;;;0.10;0.10;;;9.00;99.90;;;;;;5111585;28;20541;-86
2022/02/23 12:16:38;;;;;;;0.00;0.00;;;9.00;99.90;;;;;;5111265;28;20043;-92
2022/02/23 12:19:07;;;;;;;0.00;0.00;;;9.20;99.90;;;;;;5109887;28;20051;-92
2022/02/23 12:21:41;;;;;;;0.03;0.03;;;9.20;99.90;;;;;;5079398;28;20131;-93
2022/02/23 12:24:16;;;;;;;0.00;0.00;;;9.20;99.90;;;;;;5110833;28;20113;-92
2022/02/23 12:26:44;;;;;;;0.00;0.00;;;9.30;99.90;;;;;;5129367;28;20040;-93
2022/02/23 12:29:14;;;;;;;0.10;0.10;;;9.30;99.90;;;;;;5094380;28;20050;-92
2022/02/23 12:31:44;;;;;;;0.00;0.00;;;9.40;99.90;;;;;;5111633;28;20032;-86
2022/02/23 12:34:22;;;;;;;0.10;0.10;;;9.40;99.90;;;;;;5111510;28;20047;-87
2022/02/23 12:36:52;;;;;;;0.20;0.20;;;9.30;99.90;;;;;;5111071;28;20040;-86
2022/02/23 12:39:34;;;;;;;0.00;0.00;;;9.30;99.90;;;;;;5114165;28;20127;-92
2022/02/23 12:42:31;;;;;;;0.10;0.10;;;9.50;99.90;;;;;;5123606;28;20048;-93
2022/02/23 12:45:01;;;;;;;0.00;0.00;;;9.40;99.90;;;;;;5095462;28;20094;-86
2022/02/23 12:47:28;;;;;;;0.08;0.08;;;9.50;99.90;;;;;;5093651;28;20439;-93
2022/02/23 12:50:57;;;;;;;0.00;0.00;;;9.50;99.90;;;;;;5095569;28;20093;-92
2022/02/23 12:53:05;;;;;;;0.00;0.00;;;9.50;99.90;;;;;;5114493;28;20044;-87
2022/02/23 12:55:33;;;;;;;0.00;0.00;;;9.50;99.90;;;;;;5110256;28;20046;-87
2022/02/23 12:58:00;;;;;;;0.10;0.10;;;9.60;99.90;;;;;;5094027;28;20047;-92
2022/02/23 13:00:29;;;;;;;0.10;0.10;;;9.50;99.90;;;;;;5110267;28;20476;-87
2022/02/23 13:03:04;;;;;;;0.75;0.50;;;9.50;99.90;;;;;;5135862;28;20085;-92
2022/02/23 13:05:36;;;;;;;0.00;0.00;;;9.20;99.90;;;;;;5130470;28;20104;-87
2022/02/23 13:08:06;;;;;;;0.10;0.10;;;9.60;99.90;;;;;;5130132;28;20044;-92
2022/02/23 13:10:49;;;;;;;0.00;0.00;;;9.60;99.90;;;;;;5114183;28;20043;-87
2022/02/23 13:13:44;;;;;;;0.00;0.00;;;9.60;99.90;;;;;;5111756;28;20541;-87